createdAt,value
2023-05-19T00:03:21.912Z,77.64
2023-05-19T00:18:23.918Z,77.02
2023-05-19T00:33:25.798Z,75.78
2023-05-19T00:48:27.797Z,75.56
2023-05-19T01:03:32.096Z,75.20
2023-05-19T01:18:56.314Z,75.68
2023-05-19T01:34:00.454Z,75.62
2023-05-19T01:49:02.308Z,76.22
2023-05-19T02:04:10.109Z,76.41
2023-05-19T02:19:32.971Z,76.54
2023-05-19T02:34:34.688Z,76.55
2023-05-19T02:49:36.437Z,77.63
2023-05-19T03:04:41.766Z,78.29
2023-05-19T03:19:43.600Z,78.00
2023-05-19T03:34:45.512Z,79.03
2023-05-19T03:49:47.252Z,78.58
2023-05-19T04:04:49.036Z,74.56
2023-05-19T04:19:51.087Z,70.00
2023-05-19T04:34:52.933Z,68.21
2023-05-19T04:49:55.790Z,63.11
2023-05-19T05:04:58.154Z,61.02
2023-05-19T05:20:00.237Z,60.05
2023-05-19T05:35:02.179Z,55.68
2023-05-19T05:50:05.541Z,56.71
2023-05-19T06:05:07.586Z,55.72
2023-05-19T06:20:10.267Z,51.65
2023-05-19T06:35:11.981Z,50.51
2023-05-19T06:50:13.956Z,48.46
2023-05-19T07:05:15.701Z,49.36
2023-05-19T07:20:18.081Z,44.24
2023-05-19T07:35:22.695Z,46.82
2023-05-19T07:50:24.617Z,49.21
2023-05-19T08:05:26.733Z,48.68
2023-05-19T08:20:28.567Z,49.96
2023-05-19T08:35:30.443Z,49.56
2023-05-19T08:50:39.282Z,51.12
2023-05-19T09:05:41.374Z,51.50
2023-05-19T09:20:45.068Z,51.62
2023-05-19T09:35:47.529Z,51.60
2023-05-19T09:50:51.812Z,48.78
2023-05-19T10:05:53.944Z,47.94
2023-05-19T10:20:58.019Z,48.18
2023-05-19T10:36:14.554Z,47.54
2023-05-19T10:51:16.300Z,43.89
2023-05-19T11:06:18.085Z,44.00
2023-05-19T11:21:20.654Z,42.73
2023-05-19T11:36:23.396Z,44.76
2023-05-19T11:51:25.332Z,45.34
2023-05-19T12:06:28.370Z,58.66
2023-05-19T12:21:34.214Z,59.14
2023-05-19T12:36:37.205Z,65.88
2023-05-19T12:51:38.976Z,64.21
2023-05-19T13:06:41.861Z,56.13
2023-05-19T13:21:44.146Z,54.68
2023-05-19T13:36:48.274Z,53.07
2023-05-19T13:51:50.136Z,50.97
2023-05-19T14:06:52.026Z,51.05
2023-05-19T14:21:54.159Z,47.89
2023-05-19T14:36:55.897Z,47.38
2023-05-19T14:51:57.695Z,46.69
2023-05-19T15:07:09.776Z,46.78
2023-05-19T15:22:12.677Z,44.55
2023-05-19T15:37:14.437Z,44.79
2023-05-19T15:52:16.266Z,48.12
2023-05-19T16:07:18.640Z,50.53
2023-05-19T16:22:24.626Z,52.27
2023-05-19T16:37:26.693Z,52.43
2023-05-19T16:52:28.603Z,53.88
2023-05-19T17:07:30.658Z,53.86
2023-05-19T17:22:32.524Z,56.23
2023-05-19T17:37:34.421Z,59.93
2023-05-19T17:52:36.671Z,57.39
2023-05-19T18:07:41.371Z,58.29
2023-05-19T18:22:43.478Z,68.60
2023-05-19T18:37:45.289Z,61.37
2023-05-19T18:52:47.111Z,63.02
2023-05-19T19:07:49.486Z,64.64
2023-05-19T19:22:52.203Z,66.38
2023-05-19T19:37:54.154Z,66.23
2023-05-19T19:52:56.099Z,68.42
2023-05-19T20:07:57.852Z,67.86
2023-05-19T20:22:59.709Z,70.76
2023-05-19T20:38:01.623Z,72.26
2023-05-19T20:53:03.620Z,74.31
2023-05-19T21:08:05.596Z,71.96
2023-05-19T21:23:07.389Z,70.62
2023-05-19T21:38:22.704Z,71.23
2023-05-19T21:53:25.962Z,72.54
2023-05-19T22:08:27.918Z,72.63
2023-05-19T22:23:29.859Z,72.27
2023-05-19T22:38:31.639Z,72.07
2023-05-19T22:53:33.425Z,72.85
2023-05-19T23:08:35.207Z,73.33
2023-05-19T23:23:37.036Z,73.36
2023-05-19T23:38:39.064Z,72.72
2023-05-19T23:53:40.852Z,73.55
